« Back
NWS Peachtree City, Ga » Text Product » AHN Terminal Aerodrome Forecast


Printer-friendly Version
Current Version              Previous Versions:   1  2  3  4  5  6  7  8  9  

Terminal Aerodrome Forecast

002
FTUS42 KFFC 240500
TAFAHN
TAF
KAHN 240525Z 2406/2506 00000KT P6SM SCT250
     FM241600 30003KT P6SM SCT200=



USA.gov is the U.S. government's official web portal to all federal, state and local government web resources and services.